Redville, Wisconsin
Current Conditions -  °F | °C
As of 12:15 AM on Sunday 26 Oct 2014 (Local Time) from KMDZ Reporting Station
Clear Clear  
Wind Chill: 38°   Ceiling: Unl
Heat Index: 41°   Visibility: 10mi
Dew Point: 25°   Wind: 5mph
Humidity: 53%   Direction: 280°W
Pressure: 29.98"   Gusts: NA
Location:  45.0116°N, 90.6109°W
Report Text: KMDZ 260515Z AUTO 28004KT 10SM CLR 05/M04 A2998 RMK AO2 T00521037
Loading
Personal Weather Stations






























Interactive Weather Map
Tropical Storm Tracking
New forecast layout! Learn more

10-Day Weather Forecast

Advertisements
Track Severe Weather on mobile